sensor_id;sensor_type;location;lat;lon;timestamp;temperature;humidity
74940;HTU21D;63505;45.226;37.908;2023-04-01T00:00:53;2.11;77.03
74940;HTU21D;63505;45.226;37.908;2023-04-01T00:03:20;2.03;77.21
74940;HTU21D;63505;45.226;37.908;2023-04-01T00:05:47;1.95;77.45
74940;HTU21D;63505;45.226;37.908;2023-04-01T00:08:13;1.86;77.79
74940;HTU21D;63505;45.226;37.908;2023-04-01T00:10:39;1.81;78.08
74940;HTU21D;63505;45.226;37.908;2023-04-01T00:13:05;1.79;78.30
74940;HTU21D;63505;45.226;37.908;2023-04-01T00:15:31;1.79;78.47
74940;HTU21D;63505;45.226;37.908;2023-04-01T00:17:57;1.81;78.57
74940;HTU21D;63505;45.226;37.908;2023-04-01T00:20:23;1.83;78.68
74940;HTU21D;63505;45.226;37.908;2023-04-01T00:22:48;1.86;78.79
74940;HTU21D;63505;45.226;37.908;2023-04-01T00:25:15;1.84;78.89
74940;HTU21D;63505;45.226;37.908;2023-04-01T00:27:41;1.84;79.14
74940;HTU21D;63505;45.226;37.908;2023-04-01T00:30:08;1.83;79.44
74940;HTU21D;63505;45.226;37.908;2023-04-01T00:32:34;1.85;79.76
74940;HTU21D;63505;45.226;37.908;2023-04-01T00:35:00;1.85;79.93
74940;HTU21D;63505;45.226;37.908;2023-04-01T00:37:27;1.84;79.95
74940;HTU21D;63505;45.226;37.908;2023-04-01T00:39:53;1.78;80.11
74940;HTU21D;63505;45.226;37.908;2023-04-01T00:42:20;1.76;80.32
74940;HTU21D;63505;45.226;37.908;2023-04-01T00:44:49;1.77;80.40
74940;HTU21D;63505;45.226;37.908;2023-04-01T00:47:16;1.76;80.39
74940;HTU21D;63505;45.226;37.908;2023-04-01T00:49:47;1.75;80.47
74940;HTU21D;63505;45.226;37.908;2023-04-01T00:52:16;1.73;80.52
74940;HTU21D;63505;45.226;37.908;2023-04-01T00:54:45;1.70;80.71
74940;HTU21D;63505;45.226;37.908;2023-04-01T00:57:35;1.65;80.95
74940;HTU21D;63505;45.226;37.908;2023-04-01T01:00:05;1.64;81.22
74940;HTU21D;63505;45.226;37.908;2023-04-01T01:02:33;1.62;81.39
74940;HTU21D;63505;45.226;37.908;2023-04-01T01:05:00;1.61;81.52
74940;HTU21D;63505;45.226;37.908;2023-04-01T01:07:46;1.57;81.59
74940;HTU21D;63505;45.226;37.908;2023-04-01T01:10:20;1.54;81.69
74940;HTU21D;63505;45.226;37.908;2023-04-01T01:15:26;1.50;82.13
74940;HTU21D;63505;45.226;37.908;2023-04-01T01:35:22;1.63;82.33
74940;HTU21D;63505;45.226;37.908;2023-04-01T01:38:00;1.60;82.39
74940;HTU21D;63505;45.226;37.908;2023-04-01T01:40:27;1.57;82.43
74940;HTU21D;63505;45.226;37.908;2023-04-01T01:42:57;1.54;82.50
74940;HTU21D;63505;45.226;37.908;2023-04-01T01:45:26;1.52;82.57
74940;HTU21D;63505;45.226;37.908;2023-04-01T01:47:54;1.48;82.73
74940;HTU21D;63505;45.226;37.908;2023-04-01T01:50:23;1.47;82.90
74940;HTU21D;63505;45.226;37.908;2023-04-01T01:52:50;1.47;82.98
74940;HTU21D;63505;45.226;37.908;2023-04-01T01:55:32;1.46;83.01
74940;HTU21D;63505;45.226;37.908;2023-04-01T01:58:03;1.46;83.08
74940;HTU21D;63505;45.226;37.908;2023-04-01T02:00:33;1.49;83.03
74940;HTU21D;63505;45.226;37.908;2023-04-01T02:03:00;1.53;82.90
74940;HTU21D;63505;45.226;37.908;2023-04-01T02:05:28;1.54;82.77
74940;HTU21D;63505;45.226;37.908;2023-04-01T02:08:10;1.53;82.63
74940;HTU21D;63505;45.226;37.908;2023-04-01T02:10:41;1.51;82.51
74940;HTU21D;63505;45.226;37.908;2023-04-01T02:13:23;1.48;82.39
74940;HTU21D;63505;45.226;37.908;2023-04-01T02:15:52;1.41;82.36
74940;HTU21D;63505;45.226;37.908;2023-04-01T02:18:21;1.36;82.35
74940;HTU21D;63505;45.226;37.908;2023-04-01T02:20:48;1.33;82.29
74940;HTU21D;63505;45.226;37.908;2023-04-01T02:23:15;1.27;82.20
74940;HTU21D;63505;45.226;37.908;2023-04-01T02:25:42;1.22;82.11
74940;HTU21D;63505;45.226;37.908;2023-04-01T02:28:10;1.21;82.04
74940;HTU21D;63505;45.226;37.908;2023-04-01T02:30:39;1.20;81.95
74940;HTU21D;63505;45.226;37.908;2023-04-01T02:33:07;1.20;81.82
74940;HTU21D;63505;45.226;37.908;2023-04-01T02:35:35;1.23;81.81
74940;HTU21D;63505;45.226;37.908;2023-04-01T02:38:03;1.28;81.75
74940;HTU21D;63505;45.226;37.908;2023-04-01T02:40:29;1.36;81.70
74940;HTU21D;63505;45.226;37.908;2023-04-01T02:42:55;1.41;81.67
74940;HTU21D;63505;45.226;37.908;2023-04-01T02:45:21;1.48;81.63
74940;HTU21D;63505;45.226;37.908;2023-04-01T02:47:46;1.53;81.63
74940;HTU21D;63505;45.226;37.908;2023-04-01T02:50:12;1.63;81.65
74940;HTU21D;63505;45.226;37.908;2023-04-01T02:52:38;1.72;81.72
74940;HTU21D;63505;45.226;37.908;2023-04-01T02:55:05;1.80;81.84
74940;HTU21D;63505;45.226;37.908;2023-04-01T02:57:31;1.83;81.88
74940;HTU21D;63505;45.226;37.908;2023-04-01T02:59:57;1.86;81.99
74940;HTU21D;63505;45.226;37.908;2023-04-01T03:02:23;1.87;82.01
74940;HTU21D;63505;45.226;37.908;2023-04-01T03:04:49;1.91;82.00
74940;HTU21D;63505;45.226;37.908;2023-04-01T03:07:15;1.95;82.04
74940;HTU21D;63505;45.226;37.908;2023-04-01T03:09:41;1.99;82.07
74940;HTU21D;63505;45.226;37.908;2023-04-01T03:12:07;2.06;82.09
74940;HTU21D;63505;45.226;37.908;2023-04-01T03:14:43;2.14;82.08
74940;HTU21D;63505;45.226;37.908;2023-04-01T03:17:09;2.23;82.10
74940;HTU21D;63505;45.226;37.908;2023-04-01T03:19:35;2.32;82.04
74940;HTU21D;63505;45.226;37.908;2023-04-01T03:22:05;2.38;81.93
74940;HTU21D;63505;45.226;37.908;2023-04-01T03:24:31;2.47;81.92
74940;HTU21D;63505;45.226;37.908;2023-04-01T03:26:57;2.57;81.81
74940;HTU21D;63505;45.226;37.908;2023-04-01T03:29:23;2.66;81.68
74940;HTU21D;63505;45.226;37.908;2023-04-01T03:31:49;2.70;81.57
74940;HTU21D;63505;45.226;37.908;2023-04-01T03:34:15;2.79;81.54
74940;HTU21D;63505;45.226;37.908;2023-04-01T03:36:41;2.85;81.45
74940;HTU21D;63505;45.226;37.908;2023-04-01T03:39:07;2.90;81.29
74940;HTU21D;63505;45.226;37.908;2023-04-01T03:41:39;2.94;81.19
74940;HTU21D;63505;45.226;37.908;2023-04-01T03:44:06;2.94;81.10
74940;HTU21D;63505;45.226;37.908;2023-04-01T03:46:32;2.97;81.05
74940;HTU21D;63505;45.226;37.908;2023-04-01T03:48:58;3.00;81.03
74940;HTU21D;63505;45.226;37.908;2023-04-01T03:51:23;3.03;80.96
74940;HTU21D;63505;45.226;37.908;2023-04-01T03:53:50;3.02;80.92
74940;HTU21D;63505;45.226;37.908;2023-04-01T03:56:16;2.99;80.92
74940;HTU21D;63505;45.226;37.908;2023-04-01T03:58:42;2.97;80.92
74940;HTU21D;63505;45.226;37.908;2023-04-01T04:01:17;2.94;80.98
74940;HTU21D;63505;45.226;37.908;2023-04-01T04:03:44;2.94;81.01
74940;HTU21D;63505;45.226;37.908;2023-04-01T04:06:16;2.98;81.06
74940;HTU21D;63505;45.226;37.908;2023-04-01T04:08:43;3.02;81.03
74940;HTU21D;63505;45.226;37.908;2023-04-01T04:11:10;3.12;80.96
74940;HTU21D;63505;45.226;37.908;2023-04-01T04:13:40;3.21;80.79
74940;HTU21D;63505;45.226;37.908;2023-04-01T04:16:07;3.31;80.67
74940;HTU21D;63505;45.226;37.908;2023-04-01T04:18:36;3.38;80.43
74940;HTU21D;63505;45.226;37.908;2023-04-01T04:21:03;3.45;80.29
74940;HTU21D;63505;45.226;37.908;2023-04-01T04:23:30;3.54;80.12
74940;HTU21D;63505;45.226;37.908;2023-04-01T04:26:06;3.60;80.01
74940;HTU21D;63505;45.226;37.908;2023-04-01T04:28:32;3.69;79.84
74940;HTU21D;63505;45.226;37.908;2023-04-01T04:30:59;3.78;79.59
74940;HTU21D;63505;45.226;37.908;2023-04-01T04:33:26;3.88;79.42
74940;HTU21D;63505;45.226;37.908;2023-04-01T04:35:55;4.01;79.25
74940;HTU21D;63505;45.226;37.908;2023-04-01T04:38:22;4.15;79.12
74940;HTU21D;63505;45.226;37.908;2023-04-01T04:40:48;4.31;78.86
74940;HTU21D;63505;45.226;37.908;2023-04-01T04:43:16;4.48;78.71
74940;HTU21D;63505;45.226;37.908;2023-04-01T04:45:43;4.66;78.42
74940;HTU21D;63505;45.226;37.908;2023-04-01T04:48:11;4.86;78.13
74940;HTU21D;63505;45.226;37.908;2023-04-01T04:50:42;5.06;77.86
74940;HTU21D;63505;45.226;37.908;2023-04-01T04:53:12;5.22;77.08
74940;HTU21D;63505;45.226;37.908;2023-04-01T04:55:43;5.40;76.81
74940;HTU21D;63505;45.226;37.908;2023-04-01T04:58:20;5.64;76.64
74940;HTU21D;63505;45.226;37.908;2023-04-01T05:00:47;5.86;76.15
74940;HTU21D;63505;45.226;37.908;2023-04-01T05:03:20;6.08;75.82
74940;HTU21D;63505;45.226;37.908;2023-04-01T05:05:51;6.27;75.53
74940;HTU21D;63505;45.226;37.908;2023-04-01T05:08:17;6.44;75.03
74940;HTU21D;63505;45.226;37.908;2023-04-01T05:10:43;6.68;74.58
74940;HTU21D;63505;45.226;37.908;2023-04-01T05:13:11;6.82;73.77
74940;HTU21D;63505;45.226;37.908;2023-04-01T05:15:37;6.97;72.93
74940;HTU21D;63505;45.226;37.908;2023-04-01T05:18:04;7.10;72.44
74940;HTU21D;63505;45.226;37.908;2023-04-01T05:20:29;7.29;72.48
74940;HTU21D;63505;45.226;37.908;2023-04-01T05:22:57;7.47;71.81
74940;HTU21D;63505;45.226;37.908;2023-04-01T05:25:23;7.65;71.26
74940;HTU21D;63505;45.226;37.908;2023-04-01T05:27:49;7.75;70.36
74940;HTU21D;63505;45.226;37.908;2023-04-01T05:30:15;7.87;70.20
74940;HTU21D;63505;45.226;37.908;2023-04-01T05:32:55;8.04;69.97
74940;HTU21D;63505;45.226;37.908;2023-04-01T05:35:21;8.13;68.94
74940;HTU21D;63505;45.226;37.908;2023-04-01T05:37:46;8.21;68.86
74940;HTU21D;63505;45.226;37.908;2023-04-01T05:40:12;8.33;68.78
74940;HTU21D;63505;45.226;37.908;2023-04-01T05:42:38;8.42;68.77
74940;HTU21D;63505;45.226;37.908;2023-04-01T05:45:05;8.65;69.13
74940;HTU21D;63505;45.226;37.908;2023-04-01T05:47:50;8.88;68.91
74940;HTU21D;63505;45.226;37.908;2023-04-01T05:50:18;9.05;68.65
74940;HTU21D;63505;45.226;37.908;2023-04-01T05:52:44;9.19;68.29
74940;HTU21D;63505;45.226;37.908;2023-04-01T05:55:10;9.27;67.72
74940;HTU21D;63505;45.226;37.908;2023-04-01T05:57:37;9.48;67.73
74940;HTU21D;63505;45.226;37.908;2023-04-01T06:00:04;9.68;66.69
74940;HTU21D;63505;45.226;37.908;2023-04-01T06:02:38;9.91;64.76
74940;HTU21D;63505;45.226;37.908;2023-04-01T06:05:29;10.08;63.37
74940;HTU21D;63505;45.226;37.908;2023-04-01T06:08:01;10.14;62.86
74940;HTU21D;63505;45.226;37.908;2023-04-01T06:25:18;11.48;58.06
74940;HTU21D;63505;45.226;37.908;2023-04-01T06:51:06;12.70;52.19
74940;HTU21D;63505;45.226;37.908;2023-04-01T06:57:11;13.10;50.39
74940;HTU21D;63505;45.226;37.908;2023-04-01T06:59:40;13.12;49.67
74940;HTU21D;63505;45.226;37.908;2023-04-01T07:04:40;13.10;49.90
74940;HTU21D;63505;45.226;37.908;2023-04-01T07:07:36;13.16;49.47
74940;HTU21D;63505;45.226;37.908;2023-04-01T07:11:18;13.21;50.08
74940;HTU21D;63505;45.226;37.908;2023-04-01T07:13:45;13.34;49.62
74940;HTU21D;63505;45.226;37.908;2023-04-01T07:16:34;13.52;49.53
74940;HTU21D;63505;45.226;37.908;2023-04-01T07:19:12;13.65;48.48
74940;HTU21D;63505;45.226;37.908;2023-04-01T07:25:22;13.89;48.40
74940;HTU21D;63505;45.226;37.908;2023-04-01T07:28:06;13.83;48.08
74940;HTU21D;63505;45.226;37.908;2023-04-01T07:31:09;13.98;48.87
74940;HTU21D;63505;45.226;37.908;2023-04-01T07:34:05;14.24;47.48
74940;HTU21D;63505;45.226;37.908;2023-04-01T07:36:42;14.44;47.76
74940;HTU21D;63505;45.226;37.908;2023-04-01T07:39:28;14.50;47.48
74940;HTU21D;63505;45.226;37.908;2023-04-01T07:51:09;14.68;47.40
74940;HTU21D;63505;45.226;37.908;2023-04-01T07:54:15;14.73;46.35
74940;HTU21D;63505;45.226;37.908;2023-04-01T07:56:55;14.87;46.67
74940;HTU21D;63505;45.226;37.908;2023-04-01T08:03:24;14.94;45.83
74940;HTU21D;63505;45.226;37.908;2023-04-01T08:08:49;14.87;45.02
74940;HTU21D;63505;45.226;37.908;2023-04-01T08:15:12;15.00;45.32
74940;HTU21D;63505;45.226;37.908;2023-04-01T08:18:17;15.04;45.09
74940;HTU21D;63505;45.226;37.908;2023-04-01T08:21:04;15.14;45.19
74940;HTU21D;63505;45.226;37.908;2023-04-01T08:23:40;15.16;45.08
74940;HTU21D;63505;45.226;37.908;2023-04-01T08:28:54;15.15;44.39
74940;HTU21D;63505;45.226;37.908;2023-04-01T08:34:11;15.27;44.60
74940;HTU21D;63505;45.226;37.908;2023-04-01T08:36:42;15.27;44.36
74940;HTU21D;63505;45.226;37.908;2023-04-01T08:39:16;15.41;43.56
74940;HTU21D;63505;45.226;37.908;2023-04-01T08:42:06;15.40;44.11
74940;HTU21D;63505;45.226;37.908;2023-04-01T08:56:25;15.27;44.42
74940;HTU21D;63505;45.226;37.908;2023-04-01T09:01:58;15.47;44.21
74940;HTU21D;63505;45.226;37.908;2023-04-01T09:05:10;15.55;43.44
74940;HTU21D;63505;45.226;37.908;2023-04-01T09:53:58;15.91;42.28
74940;HTU21D;63505;45.226;37.908;2023-04-01T10:11:15;16.15;40.54
74940;HTU21D;63505;45.226;37.908;2023-04-01T10:34:27;16.33;39.25
74940;HTU21D;63505;45.226;37.908;2023-04-01T10:37:01;16.46;38.18
74940;HTU21D;63505;45.226;37.908;2023-04-01T10:40:08;16.37;37.30
74940;HTU21D;63505;45.226;37.908;2023-04-01T10:58:10;16.50;39.04
74940;HTU21D;63505;45.226;37.908;2023-04-01T11:04:44;16.45;38.88
74940;HTU21D;63505;45.226;37.908;2023-04-01T11:22:40;16.57;36.57
74940;HTU21D;63505;45.226;37.908;2023-04-01T11:25:17;16.49;36.62
74940;HTU21D;63505;45.226;37.908;2023-04-01T11:34:16;16.50;37.54
74940;HTU21D;63505;45.226;37.908;2023-04-01T11:40:08;16.52;38.33
74940;HTU21D;63505;45.226;37.908;2023-04-01T12:06:08;16.90;37.03
74940;HTU21D;63505;45.226;37.908;2023-04-01T12:20:01;16.32;36.56
74940;HTU21D;63505;45.226;37.908;2023-04-01T12:28:15;16.28;35.80
74940;HTU21D;63505;45.226;37.908;2023-04-01T12:31:19;16.10;36.16
74940;HTU21D;63505;45.226;37.908;2023-04-01T12:47:50;16.60;35.63
74940;HTU21D;63505;45.226;37.908;2023-04-01T12:55:54;16.70;35.15
74940;HTU21D;63505;45.226;37.908;2023-04-01T13:01:51;16.74;34.24
74940;HTU21D;63505;45.226;37.908;2023-04-01T13:04:48;16.70;33.81
74940;HTU21D;63505;45.226;37.908;2023-04-01T13:15:52;16.26;34.57
74940;HTU21D;63505;45.226;37.908;2023-04-01T13:21:50;16.05;33.66
74940;HTU21D;63505;45.226;37.908;2023-04-01T13:27:29;15.72;34.61
74940;HTU21D;63505;45.226;37.908;2023-04-01T13:32:36;15.66;35.13
74940;HTU21D;63505;45.226;37.908;2023-04-01T13:38:04;15.55;35.66
74940;HTU21D;63505;45.226;37.908;2023-04-01T13:41:12;15.41;35.69
74940;HTU21D;63505;45.226;37.908;2023-04-01T13:44:06;15.37;35.30
74940;HTU21D;63505;45.226;37.908;2023-04-01T13:49:48;14.88;35.56
74940;HTU21D;63505;45.226;37.908;2023-04-01T13:55:23;14.91;35.66
74940;HTU21D;63505;45.226;37.908;2023-04-01T14:06:23;14.52;36.84
74940;HTU21D;63505;45.226;37.908;2023-04-01T14:14:56;14.44;36.25
74940;HTU21D;63505;45.226;37.908;2023-04-01T14:28:57;14.23;35.86
74940;HTU21D;63505;45.226;37.908;2023-04-01T14:36:53;14.21;36.11
74940;HTU21D;63505;45.226;37.908;2023-04-01T14:48:01;13.35;35.66
74940;HTU21D;63505;45.226;37.908;2023-04-01T14:50:45;13.06;35.66
74940;HTU21D;63505;45.226;37.908;2023-04-01T14:53:23;12.74;36.28
74940;HTU21D;63505;45.226;37.908;2023-04-01T14:55:57;12.45;37.16
74940;HTU21D;63505;45.226;37.908;2023-04-01T14:58:25;12.23;37.77
74940;HTU21D;63505;45.226;37.908;2023-04-01T15:17:26;11.26;40.77
74940;HTU21D;63505;45.226;37.908;2023-04-01T15:31:17;10.75;41.47
74940;HTU21D;63505;45.226;37.908;2023-04-01T16:01:31;9.72;43.07
74940;HTU21D;63505;45.226;37.908;2023-04-01T16:07:15;9.62;43.35
74940;HTU21D;63505;45.226;37.908;2023-04-01T16:09:56;9.54;43.49
74940;HTU21D;63505;45.226;37.908;2023-04-01T16:13:04;9.44;43.85
74940;HTU21D;63505;45.226;37.908;2023-04-01T16:23:22;9.30;44.90
74940;HTU21D;63505;45.226;37.908;2023-04-01T16:26:05;9.33;44.88
74940;HTU21D;63505;45.226;37.908;2023-04-01T16:28:40;9.32;44.83
74940;HTU21D;63505;45.226;37.908;2023-04-01T16:32:29;9.29;44.84
74940;HTU21D;63505;45.226;37.908;2023-04-01T16:34:38;9.19;45.14
74940;HTU21D;63505;45.226;37.908;2023-04-01T16:37:12;9.07;45.46
74940;HTU21D;63505;45.226;37.908;2023-04-01T16:42:51;8.89;45.90
74940;HTU21D;63505;45.226;37.908;2023-04-01T16:45:32;8.82;45.94
74940;HTU21D;63505;45.226;37.908;2023-04-01T16:48:13;8.81;45.83
74940;HTU21D;63505;45.226;37.908;2023-04-01T16:50:41;8.80;45.73
74940;HTU21D;63505;45.226;37.908;2023-04-01T16:53:14;8.79;45.73
74940;HTU21D;63505;45.226;37.908;2023-04-01T16:58:43;8.76;45.81
74940;HTU21D;63505;45.226;37.908;2023-04-01T17:01:20;8.74;45.86
74940;HTU21D;63505;45.226;37.908;2023-04-01T17:03:57;8.72;45.94
74940;HTU21D;63505;45.226;37.908;2023-04-01T17:09:25;8.68;46.16
74940;HTU21D;63505;45.226;37.908;2023-04-01T17:36:21;8.31;47.54
74940;HTU21D;63505;45.226;37.908;2023-04-01T18:00:25;8.32;49.16
74940;HTU21D;63505;45.226;37.908;2023-04-01T18:03:24;8.33;49.41
74940;HTU21D;63505;45.226;37.908;2023-04-01T18:11:49;8.42;49.55
74940;HTU21D;63505;45.226;37.908;2023-04-01T18:20:33;8.56;50.22
74940;HTU21D;63505;45.226;37.908;2023-04-01T18:23:12;8.60;50.62
74940;HTU21D;63505;45.226;37.908;2023-04-01T18:25:47;8.63;50.79
74940;HTU21D;63505;45.226;37.908;2023-04-01T18:39:18;8.53;52.20
74940;HTU21D;63505;45.226;37.908;2023-04-01T18:42:08;8.45;52.54
74940;HTU21D;63505;45.226;37.908;2023-04-01T18:44:51;8.30;53.33
74940;HTU21D;63505;45.226;37.908;2023-04-01T18:47:25;8.20;54.00
74940;HTU21D;63505;45.226;37.908;2023-04-01T18:52:42;8.01;54.38
74940;HTU21D;63505;45.226;37.908;2023-04-01T18:58:07;7.94;54.81
74940;HTU21D;63505;45.226;37.908;2023-04-01T19:00:39;7.97;54.96
74940;HTU21D;63505;45.226;37.908;2023-04-01T19:03:24;8.02;54.89
74940;HTU21D;63505;45.226;37.908;2023-04-01T19:06:00;8.07;54.66
74940;HTU21D;63505;45.226;37.908;2023-04-01T19:08:39;8.12;54.41
74940;HTU21D;63505;45.226;37.908;2023-04-01T19:11:21;8.17;54.24
74940;HTU21D;63505;45.226;37.908;2023-04-01T19:16:40;8.23;53.83
74940;HTU21D;63505;45.226;37.908;2023-04-01T19:22:27;8.17;53.94
74940;HTU21D;63505;45.226;37.908;2023-04-01T19:27:49;8.12;54.07
74940;HTU21D;63505;45.226;37.908;2023-04-01T19:38:41;7.94;55.20
74940;HTU21D;63505;45.226;37.908;2023-04-01T19:41:38;7.91;55.41
74940;HTU21D;63505;45.226;37.908;2023-04-01T19:52:44;7.86;55.66
74940;HTU21D;63505;45.226;37.908;2023-04-01T20:00:44;7.82;55.61
74940;HTU21D;63505;45.226;37.908;2023-04-01T20:06:28;7.73;55.67
74940;HTU21D;63505;45.226;37.908;2023-04-01T20:15:03;7.60;55.69
74940;HTU21D;63505;45.226;37.908;2023-04-01T20:17:42;7.52;55.81
74940;HTU21D;63505;45.226;37.908;2023-04-01T20:25:37;7.37;55.94
74940;HTU21D;63505;45.226;37.908;2023-04-01T20:41:27;6.66;59.61
74940;HTU21D;63505;45.226;37.908;2023-04-01T20:44:09;6.63;59.78
74940;HTU21D;63505;45.226;37.908;2023-04-01T20:47:00;6.60;59.81
74940;HTU21D;63505;45.226;37.908;2023-04-01T20:49:46;6.58;59.93
74940;HTU21D;63505;45.226;37.908;2023-04-01T20:58:16;6.61;60.05
74940;HTU21D;63505;45.226;37.908;2023-04-01T21:12:05;6.67;60.14
74940;HTU21D;63505;45.226;37.908;2023-04-01T21:15:03;6.66;60.12
74940;HTU21D;63505;45.226;37.908;2023-04-01T21:20:34;6.69;59.82
74940;HTU21D;63505;45.226;37.908;2023-04-01T21:26:39;6.65;59.73
74940;HTU21D;63505;45.226;37.908;2023-04-01T21:32:05;6.54;59.64
74940;HTU21D;63505;45.226;37.908;2023-04-01T21:34:42;6.52;59.51
74940;HTU21D;63505;45.226;37.908;2023-04-01T21:37:32;6.46;59.47
74940;HTU21D;63505;45.226;37.908;2023-04-01T21:46:54;6.11;60.11
74940;HTU21D;63505;45.226;37.908;2023-04-01T21:54:40;5.84;60.56
74940;HTU21D;63505;45.226;37.908;2023-04-01T22:05:30;5.76;60.66
74940;HTU21D;63505;45.226;37.908;2023-04-01T22:11:03;5.74;60.51
74940;HTU21D;63505;45.226;37.908;2023-04-01T22:13:50;5.72;60.43
74940;HTU21D;63505;45.226;37.908;2023-04-01T22:16:44;5.72;60.35
74940;HTU21D;63505;45.226;37.908;2023-04-01T22:19:20;5.66;60.37
74940;HTU21D;63505;45.226;37.908;2023-04-01T22:25:14;5.56;60.45
74940;HTU21D;63505;45.226;37.908;2023-04-01T22:27:58;5.46;60.60
74940;HTU21D;63505;45.226;37.908;2023-04-01T22:30:47;5.39;60.70
74940;HTU21D;63505;45.226;37.908;2023-04-01T22:38:57;5.24;60.83
74940;HTU21D;63505;45.226;37.908;2023-04-01T22:44:28;5.22;60.96
74940;HTU21D;63505;45.226;37.908;2023-04-01T22:47:04;5.20;60.93
74940;HTU21D;63505;45.226;37.908;2023-04-01T22:49:42;5.16;60.97
74940;HTU21D;63505;45.226;37.908;2023-04-01T22:52:45;5.09;61.23
74940;HTU21D;63505;45.226;37.908;2023-04-01T22:55:23;5.07;61.37
74940;HTU21D;63505;45.226;37.908;2023-04-01T22:58:01;5.03;61.45
74940;HTU21D;63505;45.226;37.908;2023-04-01T23:00:42;5.02;61.57
74940;HTU21D;63505;45.226;37.908;2023-04-01T23:03:11;5.00;61.70
74940;HTU21D;63505;45.226;37.908;2023-04-01T23:05:59;4.98;61.93
74940;HTU21D;63505;45.226;37.908;2023-04-01T23:11:06;4.94;62.44
74940;HTU21D;63505;45.226;37.908;2023-04-01T23:13:39;4.94;62.70
74940;HTU21D;63505;45.226;37.908;2023-04-01T23:16:08;4.93;62.84
74940;HTU21D;63505;45.226;37.908;2023-04-01T23:18:58;4.93;62.85
74940;HTU21D;63505;45.226;37.908;2023-04-01T23:21:41;4.94;62.90
74940;HTU21D;63505;45.226;37.908;2023-04-01T23:24:33;5.00;62.84
74940;HTU21D;63505;45.226;37.908;2023-04-01T23:27:43;5.02;62.91
74940;HTU21D;63505;45.226;37.908;2023-04-01T23:36:00;4.90;62.99
74940;HTU21D;63505;45.226;37.908;2023-04-01T23:38:35;4.86;63.04
74940;HTU21D;63505;45.226;37.908;2023-04-01T23:41:02;4.78;63.11
74940;HTU21D;63505;45.226;37.908;2023-04-01T23:43:31;4.72;63.18
74940;HTU21D;63505;45.226;37.908;2023-04-01T23:46:00;4.66;63.28
74940;HTU21D;63505;45.226;37.908;2023-04-01T23:48:42;4.62;63.31
74940;HTU21D;63505;45.226;37.908;2023-04-01T23:51:14;4.58;63.34
74940;HTU21D;63505;45.226;37.908;2023-04-01T23:53:45;4.54;63.52
74940;HTU21D;63505;45.226;37.908;2023-04-01T23:56:11;4.54;63.58
